createdAt,value
2023-08-14T00:00:58.296Z,0
2023-08-14T00:01:58.705Z,0
2023-08-14T00:02:59.324Z,0
2023-08-14T00:03:59.831Z,0
2023-08-14T00:05:00.330Z,0
2023-08-14T00:06:00.505Z,0
2023-08-14T00:07:00.719Z,0
2023-08-14T00:08:00.928Z,0
2023-08-14T00:09:01.141Z,0
2023-08-14T00:10:01.326Z,0
2023-08-14T00:11:01.518Z,0
2023-08-14T00:12:01.734Z,0
2023-08-14T00:13:01.918Z,0
2023-08-14T00:14:02.101Z,0
2023-08-14T00:15:02.281Z,0
2023-08-14T00:16:02.489Z,0
2023-08-14T00:17:02.790Z,0
2023-08-14T00:18:03.004Z,0
2023-08-14T00:19:03.414Z,0
2023-08-14T00:20:03.742Z,0
2023-08-14T00:21:03.938Z,0
2023-08-14T00:22:04.114Z,0
2023-08-14T00:23:04.291Z,0
2023-08-14T00:24:04.467Z,0
2023-08-14T00:25:04.703Z,0
2023-08-14T00:26:04.873Z,0
2023-08-14T00:27:05.044Z,0
2023-08-14T00:28:05.246Z,0
2023-08-14T00:29:05.438Z,0
2023-08-14T00:30:05.598Z,0
2023-08-14T00:31:05.797Z,0
2023-08-14T00:32:06.081Z,0
2023-08-14T00:33:06.262Z,0
2023-08-14T00:34:06.606Z,0
2023-08-14T00:35:06.811Z,0
2023-08-14T00:36:07.245Z,0
2023-08-14T00:37:07.761Z,0
2023-08-14T00:38:07.997Z,0
2023-08-14T00:39:08.205Z,0
2023-08-14T00:40:08.412Z,0
2023-08-14T00:41:08.606Z,0
2023-08-14T00:42:08.774Z,0
2023-08-14T00:43:08.978Z,0
2023-08-14T00:44:09.146Z,0
2023-08-14T00:45:09.353Z,0
2023-08-14T00:46:09.528Z,0
2023-08-14T00:47:09.777Z,0
2023-08-14T00:48:09.939Z,0
2023-08-14T00:49:10.120Z,0
2023-08-14T00:50:10.304Z,0
2023-08-14T00:51:10.489Z,0
2023-08-14T00:52:10.655Z,0
2023-08-14T00:53:10.820Z,0
2023-08-14T00:54:11.021Z,0
2023-08-14T00:55:11.224Z,0
2023-08-14T00:56:11.447Z,0
2023-08-14T00:57:11.832Z,0
2023-08-14T00:58:12.012Z,0
2023-08-14T00:59:12.182Z,0
2023-08-14T01:00:12.370Z,0
2023-08-14T01:01:12.571Z,0
2023-08-14T01:02:13.128Z,0
2023-08-14T01:03:13.891Z,0
2023-08-14T01:04:14.156Z,0
2023-08-14T01:05:14.317Z,0
2023-08-14T01:06:14.492Z,0
2023-08-14T01:07:14.729Z,0
2023-08-14T01:08:14.907Z,0
2023-08-14T01:09:15.082Z,0
2023-08-14T01:10:15.273Z,0
2023-08-14T01:11:15.455Z,0
2023-08-14T01:12:15.804Z,0
2023-08-14T01:13:16.790Z,0
2023-08-14T01:14:17.024Z,0
2023-08-14T01:15:17.225Z,0
2023-08-14T01:16:17.402Z,0
2023-08-14T01:17:17.708Z,0
2023-08-14T01:18:17.876Z,0
2023-08-14T01:19:18.085Z,0
2023-08-14T01:20:18.283Z,0
2023-08-14T01:21:18.487Z,0
2023-08-14T01:22:18.855Z,0
2023-08-14T01:23:20.145Z,0
2023-08-14T01:24:20.329Z,0
2023-08-14T01:25:20.508Z,0
2023-08-14T01:26:20.705Z,0
2023-08-14T01:27:20.875Z,0
2023-08-14T01:28:21.106Z,0
2023-08-14T01:29:21.278Z,0
2023-08-14T01:30:21.453Z,0
2023-08-14T01:31:21.637Z,0
2023-08-14T01:32:21.907Z,0
2023-08-14T01:33:22.086Z,0
2023-08-14T01:34:22.298Z,0
2023-08-14T01:35:22.474Z,0
2023-08-14T01:36:22.644Z,0
2023-08-14T01:37:24.290Z,0
2023-08-14T01:38:24.831Z,0
2023-08-14T01:39:25.041Z,0
2023-08-14T01:40:25.642Z,0
2023-08-14T01:41:26.079Z,0
2023-08-14T01:42:26.284Z,0
2023-08-14T01:43:26.514Z,0
2023-08-14T01:44:26.681Z,0
2023-08-14T01:45:26.867Z,0
2023-08-14T01:46:27.058Z,0
2023-08-14T01:47:27.470Z,0
2023-08-14T01:48:27.771Z,0
2023-08-14T01:49:27.930Z,0
2023-08-14T01:50:28.101Z,0
2023-08-14T01:51:28.275Z,0
2023-08-14T01:52:28.457Z,0
2023-08-14T01:53:28.644Z,0
2023-08-14T01:54:28.812Z,0
2023-08-14T01:55:28.991Z,0
2023-08-14T01:56:29.174Z,0
2023-08-14T01:57:29.364Z,0
2023-08-14T01:58:29.580Z,0
2023-08-14T01:59:29.760Z,0
2023-08-14T02:00:29.942Z,0
2023-08-14T02:01:30.202Z,0
2023-08-14T02:02:30.629Z,0
2023-08-14T02:03:31.134Z,0
2023-08-14T02:04:31.850Z,0
2023-08-14T02:05:32.035Z,0
2023-08-14T02:06:32.202Z,0
2023-08-14T02:07:32.367Z,0
2023-08-14T02:08:32.533Z,0
2023-08-14T02:09:32.710Z,0
2023-08-14T02:10:32.879Z,0
2023-08-14T02:11:33.079Z,0
2023-08-14T02:12:33.356Z,0
2023-08-14T02:13:33.525Z,0
2023-08-14T02:14:33.693Z,0
2023-08-14T02:15:33.890Z,0
2023-08-14T02:16:34.063Z,0
2023-08-14T02:17:34.255Z,0
2023-08-14T02:18:34.521Z,0
2023-08-14T02:19:34.690Z,0
2023-08-14T02:20:34.903Z,0
2023-08-14T02:21:35.131Z,0
2023-08-14T02:22:35.293Z,0
2023-08-14T02:23:35.489Z,0
2023-08-14T02:24:35.661Z,0
2023-08-14T02:25:35.836Z,0
2023-08-14T02:26:36.004Z,0
2023-08-14T02:27:36.177Z,0
2023-08-14T02:28:36.343Z,0
2023-08-14T02:29:36.524Z,0
2023-08-14T02:30:36.784Z,0
2023-08-14T02:31:36.978Z,0
2023-08-14T02:32:37.258Z,0
2023-08-14T02:33:37.496Z,0
2023-08-14T02:34:37.661Z,0
2023-08-14T02:35:37.835Z,0
2023-08-14T02:36:38.043Z,0
2023-08-14T02:37:38.225Z,0
2023-08-14T02:38:38.416Z,0
2023-08-14T02:39:38.588Z,0
2023-08-14T02:40:38.746Z,0
2023-08-14T02:41:38.906Z,0
2023-08-14T02:42:39.070Z,0
2023-08-14T02:43:39.275Z,0
2023-08-14T02:44:39.596Z,0
2023-08-14T02:45:39.772Z,0
2023-08-14T02:46:40.096Z,0
2023-08-14T02:47:40.312Z,0
2023-08-14T02:48:40.627Z,0
2023-08-14T02:49:40.804Z,0
2023-08-14T02:50:40.971Z,0
2023-08-14T02:51:41.157Z,0
2023-08-14T02:52:41.376Z,0
2023-08-14T02:53:41.584Z,0
2023-08-14T02:54:41.764Z,0
2023-08-14T02:55:41.956Z,0
2023-08-14T02:56:42.122Z,0
2023-08-14T02:57:42.312Z,0
2023-08-14T02:58:42.485Z,0
2023-08-14T02:59:42.652Z,0
2023-08-14T03:00:42.836Z,0
2023-08-14T03:01:42.999Z,0
2023-08-14T03:02:43.218Z,0
2023-08-14T03:03:43.786Z,0
2023-08-14T03:04:43.960Z,0
2023-08-14T03:05:44.134Z,0
2023-08-14T03:06:44.303Z,0
2023-08-14T03:07:44.753Z,0
2023-08-14T03:08:44.945Z,0
2023-08-14T03:09:45.125Z,0
2023-08-14T03:10:45.313Z,0
2023-08-14T03:11:45.540Z,0
2023-08-14T03:12:45.738Z,0
2023-08-14T03:13:45.955Z,0
2023-08-14T03:14:46.146Z,0
2023-08-14T03:15:46.345Z,0
2023-08-14T03:16:46.533Z,0
2023-08-14T03:17:46.843Z,0
2023-08-14T03:18:47.151Z,0
2023-08-14T03:19:47.333Z,0
2023-08-14T03:20:47.646Z,0
2023-08-14T03:21:47.814Z,0
2023-08-14T03:22:47.998Z,0
2023-08-14T03:23:48.150Z,0
2023-08-14T03:24:48.322Z,0
2023-08-14T03:25:48.501Z,0
2023-08-14T03:26:48.674Z,0
2023-08-14T03:27:48.843Z,0
2023-08-14T03:28:49.033Z,0
2023-08-14T03:29:49.266Z,0
2023-08-14T03:30:49.474Z,0
2023-08-14T03:31:49.723Z,0
2023-08-14T03:32:49.926Z,0
2023-08-14T03:33:50.230Z,0
2023-08-14T03:34:50.420Z,0
2023-08-14T03:35:50.624Z,0
2023-08-14T03:36:50.804Z,0
2023-08-14T03:37:50.972Z,0
2023-08-14T03:38:51.164Z,0
2023-08-14T03:39:51.337Z,0
2023-08-14T03:40:51.520Z,0
2023-08-14T03:41:51.710Z,0
2023-08-14T03:42:51.901Z,0
2023-08-14T03:43:52.090Z,0
2023-08-14T03:44:52.281Z,0
2023-08-14T03:45:52.578Z,0
2023-08-14T03:46:52.820Z,0
2023-08-14T03:47:53.014Z,0
2023-08-14T03:48:53.265Z,0
2023-08-14T03:49:53.461Z,0
2023-08-14T03:50:53.647Z,0
2023-08-14T03:51:53.817Z,0
2023-08-14T03:52:53.980Z,0
2023-08-14T03:53:54.160Z,0
2023-08-14T03:54:54.321Z,0
2023-08-14T03:55:54.493Z,0
2023-08-14T03:56:54.664Z,0
2023-08-14T03:57:54.928Z,0
2023-08-14T03:58:55.111Z,0
2023-08-14T03:59:55.287Z,0
2023-08-14T04:00:55.461Z,2
2023-08-14T04:01:55.688Z,3
2023-08-14T04:02:56.061Z,4
2023-08-14T04:03:56.561Z,4
2023-08-14T04:04:56.834Z,6
2023-08-14T04:05:57.005Z,8
2023-08-14T04:06:57.222Z,8
2023-08-14T04:07:57.534Z,11
2023-08-14T04:08:57.729Z,11
2023-08-14T04:09:57.890Z,15
2023-08-14T04:10:58.080Z,15
2023-08-14T04:11:58.320Z,20
2023-08-14T04:12:59.363Z,20
2023-08-14T04:13:59.671Z,26
2023-08-14T04:14:59.868Z,26
2023-08-14T04:16:00.080Z,26
2023-08-14T04:17:00.991Z,34
2023-08-14T04:18:01.220Z,34
2023-08-14T04:19:01.509Z,34
2023-08-14T04:20:01.682Z,45
2023-08-14T04:21:01.895Z,45
2023-08-14T04:22:02.090Z,45
2023-08-14T04:23:02.272Z,45
2023-08-14T04:24:02.466Z,59
2023-08-14T04:25:02.660Z,59
2023-08-14T04:26:02.841Z,59
2023-08-14T04:27:03.011Z,59
2023-08-14T04:28:03.172Z,59
2023-08-14T04:29:03.330Z,59
2023-08-14T04:30:03.500Z,77
2023-08-14T04:31:03.702Z,77
2023-08-14T04:32:03.922Z,77
2023-08-14T04:33:04.184Z,77
2023-08-14T04:34:04.524Z,77
2023-08-14T04:35:04.730Z,110
2023-08-14T04:36:04.890Z,110
2023-08-14T04:37:05.072Z,110
2023-08-14T04:38:05.263Z,110
2023-08-14T04:39:05.439Z,110
2023-08-14T04:40:05.659Z,150
2023-08-14T04:41:05.844Z,150
2023-08-14T04:42:06.026Z,150
2023-08-14T04:43:06.231Z,150
2023-08-14T04:44:06.410Z,150
2023-08-14T04:45:06.586Z,200
2023-08-14T04:46:06.761Z,200
2023-08-14T04:47:07.144Z,200
2023-08-14T04:48:07.389Z,260
2023-08-14T04:49:07.745Z,260
2023-08-14T04:50:07.927Z,260
2023-08-14T04:51:08.123Z,260
2023-08-14T04:52:08.346Z,339.84
2023-08-14T04:53:08.559Z,339.84
2023-08-14T04:54:08.745Z,339.84
2023-08-14T04:55:08.937Z,449.92
2023-08-14T04:56:09.126Z,449.92
2023-08-14T04:57:09.284Z,449.92
2023-08-14T04:58:09.475Z,449.92
2023-08-14T04:59:09.654Z,449.92
2023-08-14T05:00:09.852Z,589.76
2023-08-14T05:01:10.193Z,589.76
2023-08-14T05:02:10.477Z,589.76
2023-08-14T05:03:10.646Z,589.76
2023-08-14T05:04:10.876Z,769.92
2023-08-14T05:05:11.162Z,769.92
2023-08-14T05:06:11.347Z,769.92
2023-08-14T05:07:11.559Z,769.92
2023-08-14T05:08:11.731Z,769.92
2023-08-14T05:09:24.759Z,769.92
2023-08-14T05:10:28.399Z,1019.52
2023-08-14T05:11:28.876Z,1019.52
2023-08-14T05:12:29.056Z,1019.52
2023-08-14T05:13:29.246Z,1338.88
2023-08-14T05:14:29.425Z,1338.88
2023-08-14T05:15:29.607Z,1338.88
2023-08-14T05:16:29.830Z,1338.88
2023-08-14T05:17:30.227Z,1760
2023-08-14T05:18:30.446Z,1760
2023-08-14T05:19:30.606Z,1760
2023-08-14T05:20:30.795Z,1760
2023-08-14T05:21:30.979Z,2298.88
2023-08-14T05:22:31.163Z,2298.88
2023-08-14T05:23:31.369Z,2298.88
2023-08-14T05:24:31.539Z,3038.72
2023-08-14T05:25:31.698Z,3038.72
2023-08-14T05:26:31.899Z,3038.72
2023-08-14T05:27:32.073Z,3038.72
2023-08-14T05:28:32.248Z,3038.72
2023-08-14T05:29:32.559Z,3038.72
2023-08-14T05:30:32.736Z,3038.72
2023-08-14T05:31:32.981Z,2119.68
2023-08-14T05:32:33.369Z,2119.68
2023-08-14T05:33:33.622Z,2119.68
2023-08-14T05:34:33.802Z,2119.68
2023-08-14T05:35:33.998Z,2119.68
2023-08-14T05:36:34.177Z,2119.68
2023-08-14T05:37:34.359Z,2119.68
2023-08-14T05:38:34.552Z,2119.68
2023-08-14T05:39:34.823Z,2119.68
2023-08-14T05:40:35.006Z,2119.68
2023-08-14T05:41:35.220Z,2119.68
2023-08-14T05:42:35.406Z,2119.68
2023-08-14T05:43:35.597Z,2119.68
2023-08-14T05:44:35.772Z,2119.68
2023-08-14T05:45:35.974Z,2119.68
2023-08-14T05:46:36.290Z,2119.68
2023-08-14T05:47:36.511Z,2119.68
2023-08-14T05:48:36.772Z,2119.68
2023-08-14T05:49:36.954Z,2119.68
2023-08-14T05:50:37.129Z,2119.68
2023-08-14T05:51:37.317Z,2119.68
2023-08-14T05:52:37.794Z,2119.68
2023-08-14T05:53:38.038Z,2119.68
2023-08-14T05:54:38.215Z,2119.68
2023-08-14T05:55:38.383Z,2119.68
2023-08-14T05:56:38.594Z,2119.68
2023-08-14T05:57:38.780Z,2119.68
2023-08-14T05:58:38.949Z,2119.68
2023-08-14T05:59:39.131Z,2119.68
2023-08-14T06:00:39.303Z,2119.68
2023-08-14T06:01:39.605Z,2119.68
2023-08-14T06:02:39.907Z,2119.68
2023-08-14T06:03:44.639Z,2119.68
2023-08-14T06:04:46.379Z,2119.68
2023-08-14T06:05:46.608Z,2119.68
2023-08-14T06:06:46.778Z,2119.68
2023-08-14T06:07:48.948Z,2119.68
2023-08-14T06:08:52.241Z,2240
2023-08-14T06:09:52.412Z,2240
2023-08-14T06:10:52.603Z,2240
2023-08-14T06:11:52.831Z,2240
2023-08-14T06:12:53.026Z,2240
2023-08-14T06:13:53.228Z,2240
2023-08-14T06:14:53.418Z,2240
2023-08-14T06:15:53.587Z,2240
2023-08-14T06:16:53.764Z,2240
2023-08-14T06:17:54.078Z,2240
2023-08-14T06:18:54.574Z,2240
2023-08-14T06:19:54.860Z,2240
2023-08-14T06:20:55.055Z,2240
2023-08-14T06:21:55.501Z,2240
2023-08-14T06:22:55.664Z,2240
2023-08-14T06:23:55.825Z,2240
2023-08-14T06:24:56.014Z,2240
2023-08-14T06:25:56.178Z,2240
2023-08-14T06:26:56.673Z,2240
2023-08-14T06:27:56.862Z,2240
2023-08-14T06:28:57.048Z,2240
2023-08-14T06:29:57.240Z,2240
2023-08-14T06:30:57.469Z,2240
2023-08-14T06:31:57.867Z,2639.36
2023-08-14T06:32:58.075Z,2639.36
2023-08-14T06:33:58.332Z,2639.36
2023-08-14T06:34:59.887Z,2639.36
2023-08-14T06:36:00.114Z,2639.36
2023-08-14T06:37:00.319Z,2639.36
2023-08-14T06:38:00.493Z,2639.36
2023-08-14T06:39:00.673Z,2639.36
2023-08-14T06:40:00.851Z,2639.36
2023-08-14T06:41:01.052Z,2639.36
2023-08-14T06:42:01.286Z,2639.36
2023-08-14T06:43:01.707Z,2639.36
2023-08-14T06:44:01.892Z,2639.36
2023-08-14T06:45:02.128Z,2639.36
2023-08-14T06:46:02.348Z,2639.36
2023-08-14T06:47:02.595Z,2639.36
2023-08-14T06:48:02.825Z,2639.36
2023-08-14T06:49:03.256Z,2639.36
2023-08-14T06:50:03.428Z,2639.36
2023-08-14T06:51:03.587Z,2639.36
2023-08-14T06:52:03.768Z,2639.36
2023-08-14T06:53:03.933Z,2639.36
2023-08-14T06:54:04.189Z,2639.36
2023-08-14T06:55:04.456Z,2639.36
2023-08-14T06:56:04.638Z,2639.36
2023-08-14T06:57:04.878Z,2639.36
2023-08-14T06:58:05.094Z,2639.36
2023-08-14T06:59:05.265Z,2639.36
2023-08-14T07:00:05.446Z,2639.36
2023-08-14T07:01:05.659Z,2639.36
2023-08-14T07:02:06.025Z,2639.36
2023-08-14T07:03:06.256Z,2639.36
2023-08-14T07:04:06.607Z,2639.36
2023-08-14T07:05:08.008Z,2639.36
2023-08-14T07:06:12.258Z,3358.72
2023-08-14T07:07:12.452Z,3438.08
2023-08-14T07:08:12.643Z,3438.08
2023-08-14T07:09:12.826Z,3438.08
2023-08-14T07:10:13.310Z,3438.08
2023-08-14T07:11:13.532Z,3438.08
2023-08-14T07:12:13.830Z,3438.08
2023-08-14T07:13:14.124Z,3438.08
2023-08-14T07:14:14.550Z,3438.08
2023-08-14T07:15:14.930Z,3438.08
2023-08-14T07:16:15.134Z,3438.08
2023-08-14T07:17:15.459Z,3438.08
2023-08-14T07:18:15.633Z,3438.08
2023-08-14T07:19:15.803Z,3438.08
2023-08-14T07:20:15.976Z,3438.08
2023-08-14T07:21:16.160Z,3438.08
2023-08-14T07:22:16.498Z,3438.08
2023-08-14T07:23:17.490Z,3438.08
2023-08-14T07:24:17.678Z,3438.08
2023-08-14T07:25:17.881Z,3438.08
2023-08-14T07:26:18.040Z,3438.08
2023-08-14T07:27:18.214Z,3438.08
2023-08-14T07:28:18.400Z,3438.08
2023-08-14T07:29:19.606Z,3438.08
2023-08-14T07:30:20.193Z,3438.08
2023-08-14T07:31:20.360Z,3438.08
2023-08-14T07:32:20.699Z,3438.08
2023-08-14T07:33:22.094Z,3438.08
2023-08-14T07:34:22.282Z,3438.08
2023-08-14T07:35:22.455Z,3438.08
2023-08-14T07:36:22.620Z,3438.08
2023-08-14T07:37:22.792Z,3438.08
2023-08-14T07:38:22.963Z,4538.88
2023-08-14T07:39:23.154Z,4538.88
2023-08-14T07:40:23.350Z,4538.88
2023-08-14T07:41:23.917Z,4538.88
2023-08-14T07:42:24.112Z,4538.88
2023-08-14T07:43:24.297Z,4538.88
2023-08-14T07:44:24.491Z,4538.88
2023-08-14T07:45:24.671Z,4538.88
2023-08-14T07:46:24.988Z,4538.88
2023-08-14T07:47:25.566Z,4538.88
2023-08-14T07:48:26.009Z,4538.88
2023-08-14T07:49:26.189Z,4538.88
2023-08-14T07:50:26.381Z,4538.88
2023-08-14T07:51:26.597Z,4538.88
2023-08-14T07:52:26.772Z,4538.88
2023-08-14T07:53:26.952Z,4538.88
2023-08-14T07:54:27.120Z,4538.88
2023-08-14T07:55:27.343Z,4538.88
2023-08-14T07:56:27.669Z,4538.88
2023-08-14T07:57:27.847Z,4538.88
2023-08-14T07:58:28.014Z,4538.88
2023-08-14T07:59:28.218Z,4538.88
2023-08-14T08:00:28.404Z,4538.88
2023-08-14T08:01:28.631Z,4538.88
2023-08-14T08:02:29.738Z,4538.88
2023-08-14T08:03:30.044Z,4538.88
2023-08-14T08:04:39.919Z,4538.88
2023-08-14T08:05:41.317Z,5319.68
2023-08-14T08:06:44.389Z,5319.68
2023-08-14T08:07:45.145Z,5319.68
2023-08-14T08:08:46.954Z,5319.68
2023-08-14T08:09:51.128Z,5575.68
2023-08-14T08:10:51.332Z,5575.68
2023-08-14T08:11:51.486Z,5575.68
2023-08-14T08:12:51.921Z,5575.68
2023-08-14T08:13:52.750Z,5575.68
2023-08-14T08:14:58.793Z,5739.52
2023-08-14T08:15:59.021Z,5739.52
2023-08-14T08:16:59.442Z,5918.72
2023-08-14T08:17:59.622Z,5918.72
2023-08-14T08:18:59.910Z,5918.72
2023-08-14T08:20:00.168Z,5918.72
2023-08-14T08:21:00.587Z,5918.72
2023-08-14T08:22:00.801Z,5918.72
2023-08-14T08:23:01.051Z,5918.72
2023-08-14T08:24:01.266Z,5918.72
2023-08-14T08:25:01.516Z,5918.72
2023-08-14T08:26:01.690Z,5918.72
2023-08-14T08:27:01.881Z,5918.72
2023-08-14T08:28:02.073Z,5918.72
2023-08-14T08:29:02.248Z,5918.72
2023-08-14T08:30:02.439Z,5918.72
2023-08-14T08:31:02.818Z,5918.72
2023-08-14T08:32:03.150Z,5918.72
2023-08-14T08:33:03.986Z,5918.72
2023-08-14T08:34:04.519Z,5918.72
2023-08-14T08:35:04.716Z,5918.72
2023-08-14T08:36:04.929Z,5918.72
2023-08-14T08:37:05.095Z,5918.72
2023-08-14T08:38:05.304Z,5918.72
2023-08-14T08:39:05.511Z,5918.72
2023-08-14T08:40:05.709Z,5918.72
2023-08-14T08:41:05.869Z,5918.72
2023-08-14T08:42:06.049Z,5918.72
2023-08-14T08:43:06.232Z,5918.72
2023-08-14T08:44:06.423Z,5918.72
2023-08-14T08:45:06.599Z,5918.72
2023-08-14T08:46:06.791Z,5918.72
2023-08-14T08:47:07.007Z,5918.72
2023-08-14T08:48:07.213Z,5918.72
2023-08-14T08:49:07.533Z,5918.72
2023-08-14T08:50:09.014Z,5918.72
2023-08-14T08:51:09.362Z,5918.72
2023-08-14T08:52:09.532Z,5918.72
2023-08-14T08:53:09.703Z,5918.72
2023-08-14T08:54:09.893Z,5918.72
2023-08-14T08:55:10.097Z,5918.72
2023-08-14T08:56:10.328Z,5918.72
2023-08-14T08:57:10.516Z,5918.72
2023-08-14T08:58:10.709Z,5918.72
2023-08-14T08:59:10.877Z,5918.72
2023-08-14T09:00:11.031Z,5918.72
2023-08-14T09:01:11.247Z,5918.72
2023-08-14T09:02:11.529Z,5918.72
2023-08-14T09:03:11.767Z,5918.72
2023-08-14T09:04:12.509Z,7695.36
2023-08-14T09:05:13.108Z,7695.36
2023-08-14T09:06:13.337Z,7695.36
2023-08-14T09:07:14.258Z,7695.36
2023-08-14T09:08:14.421Z,7695.36
2023-08-14T09:09:14.594Z,7695.36
2023-08-14T09:10:14.804Z,7695.36
2023-08-14T09:11:15.363Z,7695.36
2023-08-14T09:12:16.442Z,7695.36
2023-08-14T09:13:24.458Z,7695.36
2023-08-14T09:14:33.444Z,9477.12
2023-08-14T09:15:33.733Z,9477.12
2023-08-14T09:16:34.075Z,9477.12
2023-08-14T09:17:34.257Z,10199.04
2023-08-14T09:18:34.469Z,10199.04
2023-08-14T09:19:34.703Z,10199.04
2023-08-14T09:20:34.902Z,13598.72
2023-08-14T09:21:35.075Z,13598.72
2023-08-14T09:22:35.278Z,17797.12
2023-08-14T09:23:35.504Z,17797.12
2023-08-14T09:24:35.694Z,17797.12
2023-08-14T09:25:35.880Z,23183.36
2023-08-14T09:26:36.060Z,23183.36
2023-08-14T09:27:36.261Z,23183.36
2023-08-14T09:28:36.488Z,23183.36
2023-08-14T09:29:36.783Z,23183.36
2023-08-14T09:30:37.032Z,23183.36
2023-08-14T09:31:37.395Z,23183.36
2023-08-14T09:32:37.664Z,23183.36
2023-08-14T09:33:38.128Z,23183.36
2023-08-14T09:34:38.327Z,23183.36
2023-08-14T09:35:38.581Z,23183.36
2023-08-14T09:36:38.870Z,23183.36
2023-08-14T09:37:39.068Z,23183.36
2023-08-14T09:38:39.258Z,23183.36
2023-08-14T09:39:39.459Z,23183.36
2023-08-14T09:40:39.656Z,23183.36
2023-08-14T09:41:39.850Z,23183.36
2023-08-14T09:42:40.032Z,23183.36
2023-08-14T09:43:40.221Z,23183.36
2023-08-14T09:44:40.402Z,23183.36
2023-08-14T09:45:40.580Z,23183.36
2023-08-14T09:46:40.848Z,23183.36
2023-08-14T09:47:41.423Z,23183.36
2023-08-14T09:48:42.135Z,23183.36
2023-08-14T09:49:43.008Z,23183.36
2023-08-14T09:50:43.204Z,23183.36
2023-08-14T09:51:43.402Z,23183.36
2023-08-14T09:52:43.607Z,23183.36
2023-08-14T09:53:43.911Z,23183.36
2023-08-14T09:54:44.125Z,23183.36
2023-08-14T09:55:44.323Z,23183.36
2023-08-14T09:56:44.525Z,23183.36
2023-08-14T09:57:44.767Z,23183.36
2023-08-14T09:58:44.968Z,23183.36
2023-08-14T09:59:45.198Z,23183.36
2023-08-14T10:00:45.425Z,23183.36
2023-08-14T10:01:45.798Z,23183.36
2023-08-14T10:02:46.159Z,23183.36
2023-08-14T10:03:46.724Z,23183.36
2023-08-14T10:04:46.901Z,23183.36
2023-08-14T10:05:47.087Z,23183.36
2023-08-14T10:06:47.280Z,23183.36
2023-08-14T10:07:47.446Z,23183.36
2023-08-14T10:08:47.616Z,23183.36
2023-08-14T10:09:47.793Z,23183.36
2023-08-14T10:10:56.189Z,23183.36
2023-08-14T10:12:20.322Z,27996.16
2023-08-14T10:13:20.521Z,27996.16
2023-08-14T10:14:21.027Z,27996.16
2023-08-14T10:15:21.203Z,27996.16
2023-08-14T10:16:21.455Z,27996.16
2023-08-14T10:17:21.733Z,27996.16
2023-08-14T10:18:21.902Z,27996.16
2023-08-14T10:19:22.093Z,27996.16
2023-08-14T10:20:23.197Z,16199.68
2023-08-14T10:21:23.506Z,16199.68
2023-08-14T10:22:23.717Z,21790.72
2023-08-14T10:23:23.930Z,21790.72
2023-08-14T10:24:24.129Z,21790.72
2023-08-14T10:25:24.486Z,21790.72
2023-08-14T10:26:26.726Z,21790.72
2023-08-14T10:27:28.625Z,22794.24
2023-08-14T10:28:28.810Z,22794.24
2023-08-14T10:29:28.983Z,22794.24
2023-08-14T10:30:29.480Z,22794.24
2023-08-14T10:31:29.825Z,22794.24
2023-08-14T10:32:30.483Z,22794.24
2023-08-14T10:33:34.594Z,25190.4
2023-08-14T10:34:34.767Z,25190.4
2023-08-14T10:35:35.008Z,25190.4
2023-08-14T10:36:35.223Z,25190.4
2023-08-14T10:37:36.174Z,25190.4
2023-08-14T10:38:39.558Z,26992.64
2023-08-14T10:39:39.757Z,26992.64
2023-08-14T10:40:39.993Z,26992.64
2023-08-14T10:41:40.241Z,26992.64
2023-08-14T10:42:40.445Z,26992.64
2023-08-14T10:43:40.655Z,28385.28
2023-08-14T10:44:40.849Z,28385.28
2023-08-14T10:45:41.018Z,28385.28
2023-08-14T10:46:41.262Z,28385.28
2023-08-14T10:47:41.582Z,28385.28
2023-08-14T10:48:41.894Z,28385.28
2023-08-14T10:49:42.063Z,28385.28
2023-08-14T10:50:42.240Z,28385.28
2023-08-14T10:51:42.415Z,28385.28
2023-08-14T10:52:42.669Z,28385.28
2023-08-14T10:53:42.954Z,28385.28
2023-08-14T10:54:43.155Z,28385.28
2023-08-14T10:55:43.349Z,28385.28
2023-08-14T10:56:43.613Z,28385.28
2023-08-14T10:57:43.836Z,28385.28
2023-08-14T10:58:44.048Z,28385.28
2023-08-14T10:59:44.249Z,19793.92
2023-08-14T11:00:44.436Z,19793.92
2023-08-14T11:01:44.641Z,19793.92
2023-08-14T11:02:44.978Z,19793.92
2023-08-14T11:03:45.359Z,19793.92
2023-08-14T11:04:45.552Z,19793.92
2023-08-14T11:05:45.772Z,19793.92
2023-08-14T11:06:46.067Z,19793.92
2023-08-14T11:07:46.276Z,19793.92
2023-08-14T11:08:46.482Z,19793.92
2023-08-14T11:09:46.743Z,25989.12
2023-08-14T11:10:46.955Z,25989.12
2023-08-14T11:11:47.162Z,25989.12
2023-08-14T11:12:47.361Z,25989.12
2023-08-14T11:13:47.577Z,33996.8
2023-08-14T11:14:47.791Z,33996.8
2023-08-14T11:15:47.996Z,33996.8
2023-08-14T11:16:48.472Z,33996.8
2023-08-14T11:17:48.990Z,44359.68
2023-08-14T11:18:49.277Z,44359.68
2023-08-14T11:19:49.452Z,44359.68
2023-08-14T11:20:49.625Z,44359.68
2023-08-14T11:21:49.802Z,44359.68
2023-08-14T11:22:49.991Z,59392
2023-08-14T11:23:50.206Z,59392
2023-08-14T11:24:50.394Z,59392
2023-08-14T11:25:50.581Z,59392
2023-08-14T11:26:50.762Z,59392
2023-08-14T11:27:50.990Z,59392
2023-08-14T11:28:51.269Z,41390.08
2023-08-14T11:29:53.253Z,41390.08
2023-08-14T11:31:02.443Z,33382.4
2023-08-14T11:32:02.707Z,28385.28
2023-08-14T11:33:03.057Z,28385.28
2023-08-14T11:34:03.574Z,19793.92
2023-08-14T11:35:03.750Z,19793.92
2023-08-14T11:36:10.970Z,19793.92
2023-08-14T11:37:13.072Z,20193.28
2023-08-14T11:38:15.753Z,36782.08
2023-08-14T11:39:16.010Z,36782.08
2023-08-14T11:40:16.196Z,36782.08
2023-08-14T11:41:16.362Z,49192.96
2023-08-14T11:42:16.935Z,49192.96
2023-08-14T11:43:19.303Z,64389.12
2023-08-14T11:44:19.498Z,64389.12
2023-08-14T11:45:19.740Z,64389.12
2023-08-14T11:46:19.912Z,64389.12
2023-08-14T11:47:20.099Z,64389.12
2023-08-14T11:48:20.406Z,64389.12
2023-08-14T11:49:20.651Z,64389.12
2023-08-14T11:50:20.830Z,64389.12
2023-08-14T11:51:21.024Z,44974.08
2023-08-14T11:52:21.576Z,44974.08
2023-08-14T11:53:25.284Z,44974.08
2023-08-14T11:54:26.801Z,44974.08
2023-08-14T11:55:27.362Z,44974.08
2023-08-14T11:56:27.577Z,44974.08
2023-08-14T11:57:27.752Z,44974.08
2023-08-14T11:58:27.923Z,44974.08
2023-08-14T11:59:28.090Z,59392
2023-08-14T12:00:33.138Z,59392
2023-08-14T12:01:34.927Z,63979.52
2023-08-14T12:02:35.185Z,63979.52
2023-08-14T12:03:35.502Z,63979.52
2023-08-14T12:04:35.838Z,63979.52
2023-08-14T12:05:36.278Z,63979.52
2023-08-14T12:06:36.439Z,63979.52
2023-08-14T12:07:36.625Z,63979.52
2023-08-14T12:08:36.801Z,63979.52
2023-08-14T12:09:37.009Z,63979.52
2023-08-14T12:10:37.171Z,63979.52
2023-08-14T12:11:37.331Z,63979.52
2023-08-14T12:12:39.667Z,63979.52
2023-08-14T12:13:56.276Z,51978.24
2023-08-14T12:14:56.427Z,41185.28
2023-08-14T12:15:56.673Z,41185.28
2023-08-14T12:16:57.498Z,41185.28
2023-08-14T12:18:21.240Z,31395.84
2023-08-14T12:19:21.728Z,31395.84
2023-08-14T12:20:21.946Z,31395.84
2023-08-14T12:21:22.155Z,31395.84
2023-08-14T12:22:22.332Z,31395.84
2023-08-14T12:23:24.221Z,31395.84
2023-08-14T12:24:25.262Z,31395.84
2023-08-14T12:25:25.514Z,31395.84
2023-08-14T12:26:25.702Z,31395.84
2023-08-14T12:27:25.924Z,31395.84
2023-08-14T12:28:26.106Z,28794.88
2023-08-14T12:29:26.504Z,28794.88
2023-08-14T12:30:26.761Z,19998.72
2023-08-14T12:31:26.962Z,19998.72
2023-08-14T12:32:27.324Z,19998.72
2023-08-14T12:33:27.636Z,19998.72
2023-08-14T12:34:27.808Z,19998.72
2023-08-14T12:35:27.980Z,19998.72
2023-08-14T12:36:28.180Z,19998.72
2023-08-14T12:37:28.377Z,19998.72
2023-08-14T12:38:28.536Z,19998.72
2023-08-14T12:39:28.753Z,25989.12
2023-08-14T12:40:28.949Z,34385.92
2023-08-14T12:41:29.137Z,34385.92
2023-08-14T12:42:29.303Z,34385.92
2023-08-14T12:43:38.983Z,34385.92
2023-08-14T12:44:41.484Z,23797.76
2023-08-14T12:45:41.907Z,23797.76
2023-08-14T12:46:42.102Z,16599.04
2023-08-14T12:47:42.423Z,16599.04
2023-08-14T12:48:42.675Z,16599.04
2023-08-14T12:49:42.839Z,16599.04
2023-08-14T12:50:44.474Z,16599.04
2023-08-14T12:51:44.640Z,16599.04
2023-08-14T12:52:44.827Z,21790.72
2023-08-14T12:53:45.026Z,21790.72
2023-08-14T12:54:45.212Z,21790.72
2023-08-14T12:55:53.474Z,21790.72
2023-08-14T12:57:07.724Z,28385.28
2023-08-14T12:58:15.927Z,28385.28
2023-08-14T12:59:17.332Z,37990.4
2023-08-14T13:00:32.303Z,36392.96
2023-08-14T13:01:33.091Z,49971.2
2023-08-14T13:02:33.357Z,49971.2